sensor_id;sensor_type;location;lat;lon;timestamp;P1;durP1;ratioP1;P2;durP2;ratioP2
71080;SDS011;58740;50.672;18.690;2023-04-25T00:01:09;13.10;;;8.00;;
71080;SDS011;58740;50.672;18.690;2023-04-25T00:03:36;12.50;;;8.20;;
71080;SDS011;58740;50.672;18.690;2023-04-25T00:06:06;15.90;;;8.90;;
71080;SDS011;58740;50.672;18.690;2023-04-25T00:08:35;12.60;;;7.30;;
71080;SDS011;58740;50.672;18.690;2023-04-25T00:11:03;14.80;;;7.60;;
71080;SDS011;58740;50.672;18.690;2023-04-25T00:13:31;15.00;;;8.20;;
71080;SDS011;58740;50.672;18.690;2023-04-25T00:15:59;15.50;;;8.10;;
71080;SDS011;58740;50.672;18.690;2023-04-25T00:18:27;15.80;;;7.90;;
71080;SDS011;58740;50.672;18.690;2023-04-25T00:20:56;12.80;;;7.40;;
71080;SDS011;58740;50.672;18.690;2023-04-25T00:23:24;10.80;;;6.00;;
71080;SDS011;58740;50.672;18.690;2023-04-25T00:25:52;10.80;;;5.10;;
71080;SDS011;58740;50.672;18.690;2023-04-25T00:28:19;7.70;;;3.70;;
71080;SDS011;58740;50.672;18.690;2023-04-25T00:30:47;7.50;;;4.10;;
71080;SDS011;58740;50.672;18.690;2023-04-25T00:33:15;7.40;;;4.20;;
71080;SDS011;58740;50.672;18.690;2023-04-25T00:35:43;9.20;;;4.50;;
71080;SDS011;58740;50.672;18.690;2023-04-25T00:38:10;10.30;;;5.40;;
71080;SDS011;58740;50.672;18.690;2023-04-25T00:40:38;9.40;;;4.40;;
71080;SDS011;58740;50.672;18.690;2023-04-25T00:43:06;8.80;;;4.30;;
71080;SDS011;58740;50.672;18.690;2023-04-25T00:45:37;9.20;;;5.20;;
71080;SDS011;58740;50.672;18.690;2023-04-25T00:48:06;9.00;;;4.90;;
71080;SDS011;58740;50.672;18.690;2023-04-25T00:50:35;12.00;;;4.90;;
71080;SDS011;58740;50.672;18.690;2023-04-25T00:53:04;10.20;;;4.60;;
71080;SDS011;58740;50.672;18.690;2023-04-25T00:55:32;10.10;;;4.30;;
71080;SDS011;58740;50.672;18.690;2023-04-25T00:58:01;9.20;;;3.30;;
71080;SDS011;58740;50.672;18.690;2023-04-25T01:00:29;9.70;;;4.90;;
71080;SDS011;58740;50.672;18.690;2023-04-25T01:02:58;9.30;;;3.20;;
71080;SDS011;58740;50.672;18.690;2023-04-25T01:05:26;8.60;;;3.80;;
71080;SDS011;58740;50.672;18.690;2023-04-25T01:07:53;7.00;;;3.60;;
71080;SDS011;58740;50.672;18.690;2023-04-25T01:10:22;6.70;;;3.20;;
71080;SDS011;58740;50.672;18.690;2023-04-25T01:12:50;7.60;;;3.40;;
71080;SDS011;58740;50.672;18.690;2023-04-25T01:15:18;7.20;;;3.10;;
71080;SDS011;58740;50.672;18.690;2023-04-25T01:17:45;6.70;;;3.10;;
71080;SDS011;58740;50.672;18.690;2023-04-25T01:20:14;6.40;;;2.90;;
71080;SDS011;58740;50.672;18.690;2023-04-25T01:22:42;6.70;;;2.70;;
71080;SDS011;58740;50.672;18.690;2023-04-25T01:25:11;7.20;;;2.80;;
71080;SDS011;58740;50.672;18.690;2023-04-25T01:27:40;5.30;;;2.30;;
71080;SDS011;58740;50.672;18.690;2023-04-25T01:30:09;5.10;;;2.20;;
71080;SDS011;58740;50.672;18.690;2023-04-25T01:32:37;5.30;;;1.80;;
71080;SDS011;58740;50.672;18.690;2023-04-25T01:35:09;5.80;;;2.10;;
71080;SDS011;58740;50.672;18.690;2023-04-25T01:37:42;5.80;;;2.10;;
71080;SDS011;58740;50.672;18.690;2023-04-25T01:40:11;4.70;;;2.10;;
71080;SDS011;58740;50.672;18.690;2023-04-25T01:42:42;4.00;;;1.60;;
71080;SDS011;58740;50.672;18.690;2023-04-25T01:45:11;4.80;;;1.90;;
71080;SDS011;58740;50.672;18.690;2023-04-25T01:47:40;5.50;;;1.90;;
71080;SDS011;58740;50.672;18.690;2023-04-25T01:50:09;5.30;;;2.00;;
71080;SDS011;58740;50.672;18.690;2023-04-25T01:52:38;3.60;;;1.40;;
71080;SDS011;58740;50.672;18.690;2023-04-25T01:55:06;5.00;;;1.50;;
71080;SDS011;58740;50.672;18.690;2023-04-25T01:57:34;3.20;;;1.40;;
71080;SDS011;58740;50.672;18.690;2023-04-25T02:00:05;5.40;;;2.00;;
71080;SDS011;58740;50.672;18.690;2023-04-25T02:02:34;3.80;;;1.50;;
71080;SDS011;58740;50.672;18.690;2023-04-25T02:05:03;4.50;;;1.70;;
71080;SDS011;58740;50.672;18.690;2023-04-25T02:07:32;4.10;;;1.50;;
71080;SDS011;58740;50.672;18.690;2023-04-25T02:10:00;3.70;;;1.50;;
71080;SDS011;58740;50.672;18.690;2023-04-25T02:12:28;3.50;;;1.50;;
71080;SDS011;58740;50.672;18.690;2023-04-25T02:14:56;3.40;;;1.60;;
71080;SDS011;58740;50.672;18.690;2023-04-25T02:17:23;4.10;;;1.70;;
71080;SDS011;58740;50.672;18.690;2023-04-25T02:19:51;4.40;;;1.60;;
71080;SDS011;58740;50.672;18.690;2023-04-25T02:22:19;3.70;;;1.60;;
71080;SDS011;58740;50.672;18.690;2023-04-25T02:24:47;4.00;;;1.60;;
71080;SDS011;58740;50.672;18.690;2023-04-25T02:27:14;6.00;;;1.40;;
71080;SDS011;58740;50.672;18.690;2023-04-25T02:29:42;4.60;;;1.50;;
71080;SDS011;58740;50.672;18.690;2023-04-25T02:32:10;5.40;;;1.60;;
71080;SDS011;58740;50.672;18.690;2023-04-25T02:34:38;4.00;;;1.60;;
71080;SDS011;58740;50.672;18.690;2023-04-25T02:37:05;3.80;;;1.70;;
71080;SDS011;58740;50.672;18.690;2023-04-25T02:39:33;3.80;;;1.60;;
71080;SDS011;58740;50.672;18.690;2023-04-25T02:42:01;5.30;;;1.60;;
71080;SDS011;58740;50.672;18.690;2023-04-25T02:44:28;4.20;;;1.90;;
71080;SDS011;58740;50.672;18.690;2023-04-25T02:46:56;5.10;;;2.00;;
71080;SDS011;58740;50.672;18.690;2023-04-25T02:49:24;4.80;;;2.30;;
71080;SDS011;58740;50.672;18.690;2023-04-25T02:51:52;7.70;;;2.90;;
71080;SDS011;58740;50.672;18.690;2023-04-25T02:54:20;5.30;;;3.00;;
71080;SDS011;58740;50.672;18.690;2023-04-25T02:56:47;6.10;;;2.50;;
71080;SDS011;58740;50.672;18.690;2023-04-25T02:59:15;7.00;;;2.80;;
71080;SDS011;58740;50.672;18.690;2023-04-25T03:01:43;6.60;;;3.00;;
71080;SDS011;58740;50.672;18.690;2023-04-25T03:04:10;4.60;;;2.70;;
71080;SDS011;58740;50.672;18.690;2023-04-25T03:06:38;4.70;;;2.70;;
71080;SDS011;58740;50.672;18.690;2023-04-25T03:09:06;5.40;;;2.90;;
71080;SDS011;58740;50.672;18.690;2023-04-25T03:11:34;7.80;;;3.00;;
71080;SDS011;58740;50.672;18.690;2023-04-25T03:14:02;4.70;;;2.10;;
71080;SDS011;58740;50.672;18.690;2023-04-25T03:16:29;6.80;;;2.60;;
71080;SDS011;58740;50.672;18.690;2023-04-25T03:18:58;7.80;;;2.80;;
71080;SDS011;58740;50.672;18.690;2023-04-25T03:21:26;6.50;;;2.70;;
71080;SDS011;58740;50.672;18.690;2023-04-25T03:23:53;6.80;;;2.50;;
71080;SDS011;58740;50.672;18.690;2023-04-25T03:26:21;7.40;;;3.10;;
71080;SDS011;58740;50.672;18.690;2023-04-25T03:28:49;8.30;;;3.10;;
71080;SDS011;58740;50.672;18.690;2023-04-25T03:31:17;6.90;;;2.80;;
71080;SDS011;58740;50.672;18.690;2023-04-25T03:33:45;6.10;;;2.50;;
71080;SDS011;58740;50.672;18.690;2023-04-25T03:36:12;6.70;;;2.50;;
71080;SDS011;58740;50.672;18.690;2023-04-25T03:38:40;7.90;;;3.90;;
71080;SDS011;58740;50.672;18.690;2023-04-25T03:41:09;7.40;;;3.30;;
71080;SDS011;58740;50.672;18.690;2023-04-25T03:43:36;9.00;;;4.10;;
71080;SDS011;58740;50.672;18.690;2023-04-25T03:46:04;9.00;;;3.40;;
71080;SDS011;58740;50.672;18.690;2023-04-25T03:48:32;9.10;;;3.50;;
71080;SDS011;58740;50.672;18.690;2023-04-25T03:51:00;8.40;;;3.30;;
71080;SDS011;58740;50.672;18.690;2023-04-25T03:53:28;7.30;;;3.70;;
71080;SDS011;58740;50.672;18.690;2023-04-25T03:55:55;7.90;;;3.40;;
71080;SDS011;58740;50.672;18.690;2023-04-25T03:58:23;10.10;;;4.00;;
71080;SDS011;58740;50.672;18.690;2023-04-25T04:00:51;9.30;;;5.70;;
71080;SDS011;58740;50.672;18.690;2023-04-25T04:03:19;9.40;;;4.00;;
71080;SDS011;58740;50.672;18.690;2023-04-25T04:05:48;8.00;;;3.30;;
71080;SDS011;58740;50.672;18.690;2023-04-25T04:08:16;9.10;;;2.90;;
71080;SDS011;58740;50.672;18.690;2023-04-25T04:10:44;8.50;;;3.10;;
71080;SDS011;58740;50.672;18.690;2023-04-25T04:13:11;5.90;;;3.10;;
71080;SDS011;58740;50.672;18.690;2023-04-25T04:15:39;8.40;;;3.60;;
71080;SDS011;58740;50.672;18.690;2023-04-25T04:18:07;6.90;;;3.80;;
71080;SDS011;58740;50.672;18.690;2023-04-25T04:20:34;7.10;;;3.70;;
71080;SDS011;58740;50.672;18.690;2023-04-25T04:23:02;6.90;;;3.80;;
71080;SDS011;58740;50.672;18.690;2023-04-25T04:25:30;7.00;;;3.30;;
71080;SDS011;58740;50.672;18.690;2023-04-25T04:27:58;7.80;;;4.00;;
71080;SDS011;58740;50.672;18.690;2023-04-25T04:30:26;7.50;;;3.70;;
71080;SDS011;58740;50.672;18.690;2023-04-25T04:32:58;8.10;;;3.10;;
71080;SDS011;58740;50.672;18.690;2023-04-25T04:35:28;8.70;;;3.80;;
71080;SDS011;58740;50.672;18.690;2023-04-25T04:37:56;7.30;;;3.20;;
71080;SDS011;58740;50.672;18.690;2023-04-25T04:40:24;7.00;;;3.00;;
71080;SDS011;58740;50.672;18.690;2023-04-25T04:42:52;7.90;;;4.00;;
71080;SDS011;58740;50.672;18.690;2023-04-25T04:45:20;6.10;;;2.60;;
71080;SDS011;58740;50.672;18.690;2023-04-25T04:47:49;9.60;;;3.20;;
71080;SDS011;58740;50.672;18.690;2023-04-25T04:50:17;8.70;;;3.10;;
71080;SDS011;58740;50.672;18.690;2023-04-25T04:52:45;8.10;;;3.90;;
71080;SDS011;58740;50.672;18.690;2023-04-25T04:55:13;6.50;;;3.00;;
71080;SDS011;58740;50.672;18.690;2023-04-25T04:57:41;6.80;;;3.00;;
71080;SDS011;58740;50.672;18.690;2023-04-25T05:00:09;8.00;;;2.90;;
71080;SDS011;58740;50.672;18.690;2023-04-25T05:02:38;6.80;;;2.70;;
71080;SDS011;58740;50.672;18.690;2023-04-25T05:05:07;8.10;;;2.90;;
71080;SDS011;58740;50.672;18.690;2023-04-25T05:07:35;6.90;;;2.70;;
71080;SDS011;58740;50.672;18.690;2023-04-25T05:10:03;5.60;;;2.40;;
71080;SDS011;58740;50.672;18.690;2023-04-25T05:12:31;6.40;;;2.90;;
71080;SDS011;58740;50.672;18.690;2023-04-25T05:15:00;6.30;;;3.30;;
71080;SDS011;58740;50.672;18.690;2023-04-25T05:17:28;8.60;;;3.70;;
71080;SDS011;58740;50.672;18.690;2023-04-25T05:19:56;7.00;;;2.90;;
71080;SDS011;58740;50.672;18.690;2023-04-25T05:22:23;6.30;;;3.30;;
71080;SDS011;58740;50.672;18.690;2023-04-25T05:24:51;8.30;;;4.60;;
71080;SDS011;58740;50.672;18.690;2023-04-25T05:27:22;7.80;;;4.00;;
71080;SDS011;58740;50.672;18.690;2023-04-25T05:29:52;9.30;;;4.40;;
71080;SDS011;58740;50.672;18.690;2023-04-25T05:32:20;8.40;;;4.60;;
71080;SDS011;58740;50.672;18.690;2023-04-25T05:34:48;8.60;;;4.30;;
71080;SDS011;58740;50.672;18.690;2023-04-25T05:37:15;8.80;;;4.20;;
71080;SDS011;58740;50.672;18.690;2023-04-25T05:39:43;11.80;;;5.60;;
71080;SDS011;58740;50.672;18.690;2023-04-25T05:42:11;8.40;;;3.70;;
71080;SDS011;58740;50.672;18.690;2023-04-25T05:44:39;8.60;;;3.50;;
71080;SDS011;58740;50.672;18.690;2023-04-25T05:47:07;8.10;;;3.90;;
71080;SDS011;58740;50.672;18.690;2023-04-25T05:49:34;9.40;;;3.80;;
71080;SDS011;58740;50.672;18.690;2023-04-25T05:52:02;5.90;;;3.40;;
71080;SDS011;58740;50.672;18.690;2023-04-25T05:54:30;8.30;;;3.30;;
71080;SDS011;58740;50.672;18.690;2023-04-25T05:56:58;9.60;;;4.20;;
71080;SDS011;58740;50.672;18.690;2023-04-25T05:59:25;9.40;;;3.90;;
71080;SDS011;58740;50.672;18.690;2023-04-25T06:01:53;7.00;;;3.10;;
71080;SDS011;58740;50.672;18.690;2023-04-25T06:04:21;9.10;;;4.20;;
71080;SDS011;58740;50.672;18.690;2023-04-25T06:06:49;8.20;;;3.40;;
71080;SDS011;58740;50.672;18.690;2023-04-25T06:09:17;6.60;;;3.20;;
71080;SDS011;58740;50.672;18.690;2023-04-25T06:11:45;7.30;;;3.00;;
71080;SDS011;58740;50.672;18.690;2023-04-25T06:14:12;6.60;;;3.10;;
71080;SDS011;58740;50.672;18.690;2023-04-25T06:16:40;7.40;;;3.60;;
71080;SDS011;58740;50.672;18.690;2023-04-25T06:19:08;6.80;;;3.10;;
71080;SDS011;58740;50.672;18.690;2023-04-25T06:21:35;8.00;;;3.20;;
71080;SDS011;58740;50.672;18.690;2023-04-25T06:24:03;6.70;;;3.20;;
71080;SDS011;58740;50.672;18.690;2023-04-25T06:26:31;8.90;;;3.20;;
71080;SDS011;58740;50.672;18.690;2023-04-25T06:28:59;6.70;;;3.10;;
71080;SDS011;58740;50.672;18.690;2023-04-25T06:31:27;5.70;;;2.40;;
71080;SDS011;58740;50.672;18.690;2023-04-25T06:33:56;7.10;;;3.20;;
71080;SDS011;58740;50.672;18.690;2023-04-25T06:36:24;7.90;;;3.50;;
71080;SDS011;58740;50.672;18.690;2023-04-25T06:38:53;7.00;;;3.10;;
71080;SDS011;58740;50.672;18.690;2023-04-25T06:41:22;6.70;;;3.30;;
71080;SDS011;58740;50.672;18.690;2023-04-25T06:43:50;7.60;;;2.90;;
71080;SDS011;58740;50.672;18.690;2023-04-25T06:46:18;8.40;;;3.40;;
71080;SDS011;58740;50.672;18.690;2023-04-25T06:48:46;8.40;;;3.90;;
71080;SDS011;58740;50.672;18.690;2023-04-25T06:51:13;8.10;;;4.20;;
71080;SDS011;58740;50.672;18.690;2023-04-25T06:53:41;7.90;;;4.20;;
71080;SDS011;58740;50.672;18.690;2023-04-25T06:56:09;7.90;;;3.90;;
71080;SDS011;58740;50.672;18.690;2023-04-25T06:58:37;7.40;;;3.70;;
71080;SDS011;58740;50.672;18.690;2023-04-25T07:01:05;9.60;;;4.00;;
71080;SDS011;58740;50.672;18.690;2023-04-25T07:03:33;9.30;;;4.30;;
71080;SDS011;58740;50.672;18.690;2023-04-25T07:06:01;8.50;;;4.20;;
71080;SDS011;58740;50.672;18.690;2023-04-25T07:08:29;10.50;;;4.60;;
71080;SDS011;58740;50.672;18.690;2023-04-25T07:10:57;10.90;;;4.80;;
71080;SDS011;58740;50.672;18.690;2023-04-25T07:13:25;11.30;;;5.10;;
71080;SDS011;58740;50.672;18.690;2023-04-25T07:15:53;16.20;;;7.40;;
71080;SDS011;58740;50.672;18.690;2023-04-25T07:18:23;11.90;;;4.40;;
71080;SDS011;58740;50.672;18.690;2023-04-25T07:20:51;7.20;;;4.20;;
71080;SDS011;58740;50.672;18.690;2023-04-25T07:23:18;7.50;;;3.60;;
71080;SDS011;58740;50.672;18.690;2023-04-25T07:25:46;7.60;;;4.10;;
71080;SDS011;58740;50.672;18.690;2023-04-25T07:28:14;7.70;;;3.80;;
71080;SDS011;58740;50.672;18.690;2023-04-25T07:30:45;8.50;;;4.40;;
71080;SDS011;58740;50.672;18.690;2023-04-25T07:33:13;7.70;;;3.50;;
71080;SDS011;58740;50.672;18.690;2023-04-25T07:35:41;8.10;;;4.10;;
71080;SDS011;58740;50.672;18.690;2023-04-25T07:38:09;6.50;;;3.10;;
71080;SDS011;58740;50.672;18.690;2023-04-25T07:40:37;7.00;;;4.10;;
71080;SDS011;58740;50.672;18.690;2023-04-25T07:43:05;7.20;;;3.50;;
71080;SDS011;58740;50.672;18.690;2023-04-25T07:45:33;5.40;;;3.20;;
71080;SDS011;58740;50.672;18.690;2023-04-25T07:48:00;7.20;;;3.80;;
71080;SDS011;58740;50.672;18.690;2023-04-25T07:50:28;7.80;;;4.20;;
71080;SDS011;58740;50.672;18.690;2023-04-25T07:52:56;11.10;;;5.10;;
71080;SDS011;58740;50.672;18.690;2023-04-25T07:55:24;9.40;;;4.80;;
71080;SDS011;58740;50.672;18.690;2023-04-25T07:57:52;8.20;;;4.80;;
71080;SDS011;58740;50.672;18.690;2023-04-25T08:00:19;8.60;;;4.20;;
71080;SDS011;58740;50.672;18.690;2023-04-25T08:02:47;8.80;;;4.30;;
71080;SDS011;58740;50.672;18.690;2023-04-25T08:05:15;7.80;;;3.80;;
71080;SDS011;58740;50.672;18.690;2023-04-25T08:07:47;8.40;;;4.10;;
71080;SDS011;58740;50.672;18.690;2023-04-25T08:10:15;6.10;;;3.00;;
71080;SDS011;58740;50.672;18.690;2023-04-25T08:12:43;9.20;;;3.40;;
71080;SDS011;58740;50.672;18.690;2023-04-25T08:15:11;7.60;;;3.60;;
71080;SDS011;58740;50.672;18.690;2023-04-25T08:17:41;8.30;;;3.10;;
71080;SDS011;58740;50.672;18.690;2023-04-25T08:20:09;5.80;;;2.90;;
71080;SDS011;58740;50.672;18.690;2023-04-25T08:22:38;5.60;;;2.70;;
71080;SDS011;58740;50.672;18.690;2023-04-25T08:25:06;5.90;;;3.40;;
71080;SDS011;58740;50.672;18.690;2023-04-25T08:27:33;8.40;;;4.80;;
71080;SDS011;58740;50.672;18.690;2023-04-25T08:30:03;9.80;;;4.80;;
71080;SDS011;58740;50.672;18.690;2023-04-25T08:32:31;9.10;;;5.80;;
71080;SDS011;58740;50.672;18.690;2023-04-25T08:34:58;7.00;;;3.70;;
71080;SDS011;58740;50.672;18.690;2023-04-25T08:37:26;8.20;;;4.20;;
71080;SDS011;58740;50.672;18.690;2023-04-25T08:39:54;7.30;;;3.30;;
71080;SDS011;58740;50.672;18.690;2023-04-25T08:42:24;9.30;;;2.80;;
71080;SDS011;58740;50.672;18.690;2023-04-25T08:44:55;6.00;;;2.90;;
71080;SDS011;58740;50.672;18.690;2023-04-25T08:47:23;6.20;;;3.00;;
71080;SDS011;58740;50.672;18.690;2023-04-25T08:49:53;6.30;;;2.70;;
71080;SDS011;58740;50.672;18.690;2023-04-25T08:52:23;6.60;;;3.00;;
71080;SDS011;58740;50.672;18.690;2023-04-25T08:54:52;6.10;;;1.80;;
71080;SDS011;58740;50.672;18.690;2023-04-25T08:57:23;7.80;;;3.00;;
71080;SDS011;58740;50.672;18.690;2023-04-25T08:59:52;7.60;;;3.00;;
71080;SDS011;58740;50.672;18.690;2023-04-25T09:02:22;5.90;;;2.20;;
71080;SDS011;58740;50.672;18.690;2023-04-25T09:04:53;5.90;;;2.70;;
71080;SDS011;58740;50.672;18.690;2023-04-25T09:07:22;5.70;;;2.30;;
71080;SDS011;58740;50.672;18.690;2023-04-25T09:09:50;5.10;;;2.20;;
71080;SDS011;58740;50.672;18.690;2023-04-25T09:12:18;5.20;;;2.40;;
71080;SDS011;58740;50.672;18.690;2023-04-25T09:15:08;7.20;;;3.20;;
71080;SDS011;58740;50.672;18.690;2023-04-25T09:17:41;5.20;;;2.10;;
71080;SDS011;58740;50.672;18.690;2023-04-25T09:20:13;5.30;;;2.70;;
71080;SDS011;58740;50.672;18.690;2023-04-25T09:22:41;5.80;;;2.80;;
71080;SDS011;58740;50.672;18.690;2023-04-25T09:25:10;7.40;;;3.80;;
71080;SDS011;58740;50.672;18.690;2023-04-25T09:27:54;6.20;;;2.40;;
71080;SDS011;58740;50.672;18.690;2023-04-25T09:30:29;5.60;;;3.60;;
71080;SDS011;58740;50.672;18.690;2023-04-25T09:33:04;7.20;;;3.70;;
71080;SDS011;58740;50.672;18.690;2023-04-25T09:35:41;7.20;;;3.20;;
71080;SDS011;58740;50.672;18.690;2023-04-25T09:38:12;4.80;;;2.50;;
71080;SDS011;58740;50.672;18.690;2023-04-25T09:40:46;5.20;;;2.20;;
71080;SDS011;58740;50.672;18.690;2023-04-25T09:43:22;5.00;;;2.30;;
71080;SDS011;58740;50.672;18.690;2023-04-25T09:45:53;4.90;;;2.00;;
71080;SDS011;58740;50.672;18.690;2023-04-25T09:48:27;4.70;;;2.00;;
71080;SDS011;58740;50.672;18.690;2023-04-25T09:51:08;4.40;;;1.60;;
71080;SDS011;58740;50.672;18.690;2023-04-25T09:53:46;5.60;;;2.30;;
71080;SDS011;58740;50.672;18.690;2023-04-25T09:56:19;3.80;;;1.70;;
71080;SDS011;58740;50.672;18.690;2023-04-25T09:58:49;5.10;;;1.90;;
71080;SDS011;58740;50.672;18.690;2023-04-25T10:01:21;3.80;;;1.70;;
71080;SDS011;58740;50.672;18.690;2023-04-25T10:03:51;4.40;;;1.90;;
71080;SDS011;58740;50.672;18.690;2023-04-25T10:06:25;6.40;;;1.90;;
71080;SDS011;58740;50.672;18.690;2023-04-25T10:08:55;6.00;;;1.50;;
71080;SDS011;58740;50.672;18.690;2023-04-25T10:11:24;6.90;;;1.90;;
71080;SDS011;58740;50.672;18.690;2023-04-25T10:13:56;11.20;;;3.60;;
71080;SDS011;58740;50.672;18.690;2023-04-25T10:16:24;6.00;;;2.40;;
71080;SDS011;58740;50.672;18.690;2023-04-25T10:18:52;4.60;;;1.80;;
71080;SDS011;58740;50.672;18.690;2023-04-25T10:21:21;5.80;;;2.50;;
71080;SDS011;58740;50.672;18.690;2023-04-25T10:23:49;6.60;;;2.50;;
71080;SDS011;58740;50.672;18.690;2023-04-25T10:26:18;8.30;;;3.10;;
71080;SDS011;58740;50.672;18.690;2023-04-25T10:29:03;4.80;;;2.00;;
71080;SDS011;58740;50.672;18.690;2023-04-25T10:31:32;5.50;;;2.00;;
71080;SDS011;58740;50.672;18.690;2023-04-25T10:34:00;5.80;;;1.70;;
71080;SDS011;58740;50.672;18.690;2023-04-25T10:36:31;4.30;;;1.70;;
71080;SDS011;58740;50.672;18.690;2023-04-25T10:39:04;5.00;;;1.90;;
71080;SDS011;58740;50.672;18.690;2023-04-25T10:41:51;4.80;;;1.90;;
71080;SDS011;58740;50.672;18.690;2023-04-25T10:44:29;6.20;;;1.90;;
71080;SDS011;58740;50.672;18.690;2023-04-25T10:47:00;4.90;;;1.80;;
71080;SDS011;58740;50.672;18.690;2023-04-25T10:49:31;4.10;;;1.90;;
71080;SDS011;58740;50.672;18.690;2023-04-25T10:52:26;5.90;;;2.30;;
71080;SDS011;58740;50.672;18.690;2023-04-25T10:54:56;6.70;;;1.70;;
71080;SDS011;58740;50.672;18.690;2023-04-25T10:57:41;5.70;;;1.80;;
71080;SDS011;58740;50.672;18.690;2023-04-25T11:02:51;5.40;;;1.70;;
71080;SDS011;58740;50.672;18.690;2023-04-25T11:05:29;6.40;;;2.00;;
71080;SDS011;58740;50.672;18.690;2023-04-25T11:08:18;4.20;;;1.70;;
71080;SDS011;58740;50.672;18.690;2023-04-25T11:11:01;6.20;;;2.20;;
71080;SDS011;58740;50.672;18.690;2023-04-25T11:13:29;4.90;;;2.00;;
71080;SDS011;58740;50.672;18.690;2023-04-25T11:15:58;6.00;;;2.20;;
71080;SDS011;58740;50.672;18.690;2023-04-25T11:18:43;4.20;;;1.70;;
71080;SDS011;58740;50.672;18.690;2023-04-25T11:21:13;6.20;;;2.30;;
71080;SDS011;58740;50.672;18.690;2023-04-25T11:23:44;7.70;;;3.30;;
71080;SDS011;58740;50.672;18.690;2023-04-25T11:26:13;10.60;;;2.40;;
71080;SDS011;58740;50.672;18.690;2023-04-25T11:28:44;4.80;;;2.30;;
71080;SDS011;58740;50.672;18.690;2023-04-25T11:31:13;6.20;;;2.60;;
71080;SDS011;58740;50.672;18.690;2023-04-25T11:33:41;5.80;;;2.40;;
71080;SDS011;58740;50.672;18.690;2023-04-25T11:36:10;6.90;;;2.10;;
71080;SDS011;58740;50.672;18.690;2023-04-25T11:38:38;6.30;;;2.70;;
71080;SDS011;58740;50.672;18.690;2023-04-25T11:41:06;7.00;;;2.70;;
71080;SDS011;58740;50.672;18.690;2023-04-25T11:43:33;6.40;;;2.80;;
71080;SDS011;58740;50.672;18.690;2023-04-25T11:46:06;6.90;;;2.90;;
71080;SDS011;58740;50.672;18.690;2023-04-25T11:48:39;5.50;;;2.70;;
71080;SDS011;58740;50.672;18.690;2023-04-25T11:51:08;7.30;;;2.90;;
71080;SDS011;58740;50.672;18.690;2023-04-25T11:53:41;7.90;;;3.10;;
71080;SDS011;58740;50.672;18.690;2023-04-25T11:56:11;6.50;;;2.80;;
71080;SDS011;58740;50.672;18.690;2023-04-25T12:01:33;10.60;;;6.30;;
71080;SDS011;58740;50.672;18.690;2023-04-25T12:04:17;10.60;;;3.80;;
71080;SDS011;58740;50.672;18.690;2023-04-25T12:06:47;5.60;;;2.80;;
71080;SDS011;58740;50.672;18.690;2023-04-25T12:09:18;6.70;;;3.00;;
71080;SDS011;58740;50.672;18.690;2023-04-25T12:11:53;9.70;;;2.80;;
71080;SDS011;58740;50.672;18.690;2023-04-25T12:14:32;5.40;;;2.40;;
71080;SDS011;58740;50.672;18.690;2023-04-25T12:17:03;8.20;;;2.60;;
71080;SDS011;58740;50.672;18.690;2023-04-25T12:19:37;6.00;;;3.10;;
71080;SDS011;58740;50.672;18.690;2023-04-25T12:22:29;7.90;;;3.60;;
71080;SDS011;58740;50.672;18.690;2023-04-25T12:24:59;7.90;;;2.90;;
71080;SDS011;58740;50.672;18.690;2023-04-25T12:27:27;7.90;;;2.80;;
71080;SDS011;58740;50.672;18.690;2023-04-25T12:29:56;7.30;;;2.80;;
71080;SDS011;58740;50.672;18.690;2023-04-25T12:32:25;8.50;;;3.20;;
71080;SDS011;58740;50.672;18.690;2023-04-25T12:34:54;7.20;;;2.50;;
71080;SDS011;58740;50.672;18.690;2023-04-25T12:37:23;5.30;;;2.20;;
71080;SDS011;58740;50.672;18.690;2023-04-25T12:39:51;7.90;;;2.90;;
71080;SDS011;58740;50.672;18.690;2023-04-25T12:42:19;6.00;;;2.50;;
71080;SDS011;58740;50.672;18.690;2023-04-25T12:44:47;7.40;;;2.70;;
71080;SDS011;58740;50.672;18.690;2023-04-25T12:47:15;9.00;;;3.20;;
71080;SDS011;58740;50.672;18.690;2023-04-25T12:49:43;9.10;;;4.10;;
71080;SDS011;58740;50.672;18.690;2023-04-25T12:52:11;6.50;;;3.00;;
71080;SDS011;58740;50.672;18.690;2023-04-25T12:54:42;9.00;;;3.50;;
71080;SDS011;58740;50.672;18.690;2023-04-25T12:57:10;11.50;;;4.70;;
71080;SDS011;58740;50.672;18.690;2023-04-25T12:59:39;7.30;;;3.70;;
71080;SDS011;58740;50.672;18.690;2023-04-25T13:02:07;7.10;;;3.40;;
71080;SDS011;58740;50.672;18.690;2023-04-25T13:04:36;7.40;;;3.30;;
71080;SDS011;58740;50.672;18.690;2023-04-25T13:07:04;6.00;;;3.40;;
71080;SDS011;58740;50.672;18.690;2023-04-25T13:09:33;8.80;;;3.60;;
71080;SDS011;58740;50.672;18.690;2023-04-25T13:12:01;7.20;;;3.40;;
71080;SDS011;58740;50.672;18.690;2023-04-25T13:14:29;10.10;;;4.10;;
71080;SDS011;58740;50.672;18.690;2023-04-25T13:16:58;8.90;;;4.50;;
71080;SDS011;58740;50.672;18.690;2023-04-25T13:19:27;17.50;;;9.10;;
71080;SDS011;58740;50.672;18.690;2023-04-25T13:21:55;13.70;;;7.20;;
71080;SDS011;58740;50.672;18.690;2023-04-25T13:24:23;16.30;;;8.60;;
71080;SDS011;58740;50.672;18.690;2023-04-25T13:26:50;23.20;;;10.30;;
71080;SDS011;58740;50.672;18.690;2023-04-25T13:29:18;17.00;;;8.00;;
71080;SDS011;58740;50.672;18.690;2023-04-25T13:31:46;15.40;;;8.70;;
71080;SDS011;58740;50.672;18.690;2023-04-25T13:34:14;11.80;;;5.40;;
71080;SDS011;58740;50.672;18.690;2023-04-25T13:36:42;10.30;;;5.10;;
71080;SDS011;58740;50.672;18.690;2023-04-25T13:39:10;8.40;;;5.40;;
71080;SDS011;58740;50.672;18.690;2023-04-25T13:41:38;9.10;;;5.60;;
71080;SDS011;58740;50.672;18.690;2023-04-25T13:44:06;10.20;;;5.80;;
71080;SDS011;58740;50.672;18.690;2023-04-25T13:46:34;13.40;;;5.80;;
71080;SDS011;58740;50.672;18.690;2023-04-25T13:49:13;19.90;;;12.10;;
71080;SDS011;58740;50.672;18.690;2023-04-25T13:51:41;14.60;;;8.30;;
71080;SDS011;58740;50.672;18.690;2023-04-25T13:54:10;12.60;;;6.10;;
71080;SDS011;58740;50.672;18.690;2023-04-25T13:56:38;12.00;;;6.60;;
71080;SDS011;58740;50.672;18.690;2023-04-25T13:59:06;10.70;;;5.70;;
71080;SDS011;58740;50.672;18.690;2023-04-25T14:01:34;9.70;;;6.30;;
71080;SDS011;58740;50.672;18.690;2023-04-25T14:04:03;8.90;;;5.50;;
71080;SDS011;58740;50.672;18.690;2023-04-25T14:06:32;6.30;;;3.80;;
71080;SDS011;58740;50.672;18.690;2023-04-25T14:09:00;5.80;;;3.20;;
71080;SDS011;58740;50.672;18.690;2023-04-25T14:11:28;7.80;;;2.50;;
71080;SDS011;58740;50.672;18.690;2023-04-25T14:13:56;6.20;;;2.40;;
71080;SDS011;58740;50.672;18.690;2023-04-25T14:16:23;6.10;;;2.50;;
71080;SDS011;58740;50.672;18.690;2023-04-25T14:18:52;6.60;;;2.90;;
71080;SDS011;58740;50.672;18.690;2023-04-25T14:21:20;7.60;;;2.60;;
71080;SDS011;58740;50.672;18.690;2023-04-25T14:23:48;8.50;;;3.00;;
71080;SDS011;58740;50.672;18.690;2023-04-25T14:26:17;8.90;;;3.40;;
71080;SDS011;58740;50.672;18.690;2023-04-25T14:28:44;7.80;;;3.00;;
71080;SDS011;58740;50.672;18.690;2023-04-25T14:31:12;8.10;;;2.70;;
71080;SDS011;58740;50.672;18.690;2023-04-25T14:33:40;8.10;;;4.00;;
71080;SDS011;58740;50.672;18.690;2023-04-25T14:36:10;10.60;;;3.50;;
71080;SDS011;58740;50.672;18.690;2023-04-25T14:38:38;8.00;;;3.00;;
71080;SDS011;58740;50.672;18.690;2023-04-25T14:41:06;6.60;;;2.40;;
71080;SDS011;58740;50.672;18.690;2023-04-25T14:43:33;6.60;;;2.40;;
71080;SDS011;58740;50.672;18.690;2023-04-25T14:46:01;5.90;;;2.40;;
71080;SDS011;58740;50.672;18.690;2023-04-25T14:48:30;6.60;;;2.40;;
71080;SDS011;58740;50.672;18.690;2023-04-25T14:50:58;4.60;;;1.90;;